sensor_id;sensor_type;location;lat;lon;timestamp;temperature;humidity
31819;DHT22;18384;48.860;9.188;2023-05-24T00:01:35;15.00;94.60
31819;DHT22;18384;48.860;9.188;2023-05-24T00:04:02;15.00;94.60
31819;DHT22;18384;48.860;9.188;2023-05-24T00:06:28;15.00;94.70
31819;DHT22;18384;48.860;9.188;2023-05-24T00:08:54;15.00;94.60
31819;DHT22;18384;48.860;9.188;2023-05-24T00:11:20;15.10;94.50
31819;DHT22;18384;48.860;9.188;2023-05-24T00:13:46;15.10;94.60
31819;DHT22;18384;48.860;9.188;2023-05-24T00:16:13;15.10;94.40
31819;DHT22;18384;48.860;9.188;2023-05-24T00:18:39;15.10;94.50
31819;DHT22;18384;48.860;9.188;2023-05-24T00:21:06;15.10;94.40
31819;DHT22;18384;48.860;9.188;2023-05-24T00:23:36;15.10;94.50
31819;DHT22;18384;48.860;9.188;2023-05-24T00:26:03;15.20;94.50
31819;DHT22;18384;48.860;9.188;2023-05-24T00:28:29;15.20;94.30
31819;DHT22;18384;48.860;9.188;2023-05-24T00:30:58;15.30;94.30
31819;DHT22;18384;48.860;9.188;2023-05-24T00:33:24;15.30;94.20
31819;DHT22;18384;48.860;9.188;2023-05-24T00:35:51;15.30;94.10
31819;DHT22;18384;48.860;9.188;2023-05-24T00:38:29;15.20;93.80
31819;DHT22;18384;48.860;9.188;2023-05-24T00:40:55;15.30;93.90
31819;DHT22;18384;48.860;9.188;2023-05-24T00:43:21;15.20;93.90
31819;DHT22;18384;48.860;9.188;2023-05-24T00:45:49;15.10;93.80
31819;DHT22;18384;48.860;9.188;2023-05-24T00:48:33;15.20;94.00
31819;DHT22;18384;48.860;9.188;2023-05-24T00:50:59;15.20;93.90
31819;DHT22;18384;48.860;9.188;2023-05-24T00:53:25;15.10;93.50
31819;DHT22;18384;48.860;9.188;2023-05-24T00:55:52;15.10;93.40
31819;DHT22;18384;48.860;9.188;2023-05-24T00:58:18;15.00;93.50
31819;DHT22;18384;48.860;9.188;2023-05-24T01:00:44;14.90;93.60
31819;DHT22;18384;48.860;9.188;2023-05-24T01:03:14;14.90;93.50
31819;DHT22;18384;48.860;9.188;2023-05-24T01:05:39;14.90;93.40
31819;DHT22;18384;48.860;9.188;2023-05-24T01:08:09;14.90;93.30
31819;DHT22;18384;48.860;9.188;2023-05-24T01:10:46;14.90;93.30
31819;DHT22;18384;48.860;9.188;2023-05-24T01:13:26;14.90;93.30
31819;DHT22;18384;48.860;9.188;2023-05-24T01:20:18;14.90;93.10
31819;DHT22;18384;48.860;9.188;2023-05-24T01:23:11;14.80;92.80
31819;DHT22;18384;48.860;9.188;2023-05-24T01:26:02;14.80;92.80
31819;DHT22;18384;48.860;9.188;2023-05-24T01:28:46;14.90;92.70
31819;DHT22;18384;48.860;9.188;2023-05-24T01:31:13;14.80;92.80
31819;DHT22;18384;48.860;9.188;2023-05-24T01:33:40;14.80;92.70
31819;DHT22;18384;48.860;9.188;2023-05-24T01:36:07;14.80;92.60
31819;DHT22;18384;48.860;9.188;2023-05-24T01:38:33;14.80;92.60
31819;DHT22;18384;48.860;9.188;2023-05-24T01:45:13;14.70;92.60
31819;DHT22;18384;48.860;9.188;2023-05-24T01:47:49;14.70;92.60
31819;DHT22;18384;48.860;9.188;2023-05-24T01:50:40;14.60;92.50
31819;DHT22;18384;48.860;9.188;2023-05-24T01:53:25;14.50;92.60
31819;DHT22;18384;48.860;9.188;2023-05-24T01:55:58;14.50;92.50
31819;DHT22;18384;48.860;9.188;2023-05-24T01:58:26;14.50;92.70
31819;DHT22;18384;48.860;9.188;2023-05-24T02:00:54;14.50;92.60
31819;DHT22;18384;48.860;9.188;2023-05-24T02:03:20;14.50;92.60
31819;DHT22;18384;48.860;9.188;2023-05-24T02:05:46;14.40;92.60
31819;DHT22;18384;48.860;9.188;2023-05-24T02:08:12;14.40;92.50
31819;DHT22;18384;48.860;9.188;2023-05-24T02:10:39;14.40;92.60
31819;DHT22;18384;48.860;9.188;2023-05-24T02:13:05;14.30;92.60
31819;DHT22;18384;48.860;9.188;2023-05-24T02:15:31;14.30;92.50
31819;DHT22;18384;48.860;9.188;2023-05-24T02:17:57;14.30;92.60
31819;DHT22;18384;48.860;9.188;2023-05-24T02:20:26;14.30;92.60
31819;DHT22;18384;48.860;9.188;2023-05-24T02:22:55;14.30;92.60
31819;DHT22;18384;48.860;9.188;2023-05-24T02:25:22;14.30;92.60
31819;DHT22;18384;48.860;9.188;2023-05-24T02:27:48;14.30;92.50
31819;DHT22;18384;48.860;9.188;2023-05-24T02:30:14;14.30;92.60
31819;DHT22;18384;48.860;9.188;2023-05-24T02:32:40;14.30;92.60
31819;DHT22;18384;48.860;9.188;2023-05-24T02:35:06;14.30;92.40
31819;DHT22;18384;48.860;9.188;2023-05-24T02:37:32;14.30;92.50
31819;DHT22;18384;48.860;9.188;2023-05-24T02:39:58;14.30;92.50
31819;DHT22;18384;48.860;9.188;2023-05-24T02:42:24;14.40;92.50
31819;DHT22;18384;48.860;9.188;2023-05-24T02:44:50;14.30;92.50
31819;DHT22;18384;48.860;9.188;2023-05-24T02:47:17;14.30;92.60
31819;DHT22;18384;48.860;9.188;2023-05-24T02:49:43;14.30;92.60
31819;DHT22;18384;48.860;9.188;2023-05-24T02:52:09;14.40;92.50
31819;DHT22;18384;48.860;9.188;2023-05-24T02:54:35;14.40;92.60
31819;DHT22;18384;48.860;9.188;2023-05-24T02:57:01;14.30;92.70
31819;DHT22;18384;48.860;9.188;2023-05-24T02:59:27;14.40;92.60
31819;DHT22;18384;48.860;9.188;2023-05-24T03:01:53;14.30;92.70
31819;DHT22;18384;48.860;9.188;2023-05-24T03:04:19;14.30;92.80
31819;DHT22;18384;48.860;9.188;2023-05-24T03:06:45;14.20;92.80
31819;DHT22;18384;48.860;9.188;2023-05-24T03:09:11;14.20;92.90
31819;DHT22;18384;48.860;9.188;2023-05-24T03:11:37;14.10;92.90
31819;DHT22;18384;48.860;9.188;2023-05-24T03:14:03;14.10;92.90
31819;DHT22;18384;48.860;9.188;2023-05-24T03:16:30;14.10;93.10
31819;DHT22;18384;48.860;9.188;2023-05-24T03:18:57;14.10;93.00
31819;DHT22;18384;48.860;9.188;2023-05-24T03:21:24;14.00;93.10
31819;DHT22;18384;48.860;9.188;2023-05-24T03:23:50;14.00;93.20
31819;DHT22;18384;48.860;9.188;2023-05-24T03:26:16;14.00;93.10
31819;DHT22;18384;48.860;9.188;2023-05-24T03:28:43;13.90;92.90
31819;DHT22;18384;48.860;9.188;2023-05-24T03:31:09;13.90;93.10
31819;DHT22;18384;48.860;9.188;2023-05-24T03:33:36;14.00;93.20
31819;DHT22;18384;48.860;9.188;2023-05-24T03:36:02;14.00;93.20
31819;DHT22;18384;48.860;9.188;2023-05-24T03:38:29;13.90;93.20
31819;DHT22;18384;48.860;9.188;2023-05-24T03:40:56;13.80;93.20
31819;DHT22;18384;48.860;9.188;2023-05-24T03:43:22;13.70;93.20
31819;DHT22;18384;48.860;9.188;2023-05-24T03:45:48;13.70;93.40
31819;DHT22;18384;48.860;9.188;2023-05-24T03:48:14;13.70;93.20
31819;DHT22;18384;48.860;9.188;2023-05-24T03:50:40;13.70;93.50
31819;DHT22;18384;48.860;9.188;2023-05-24T03:53:06;13.70;93.50
31819;DHT22;18384;48.860;9.188;2023-05-24T03:55:32;13.70;93.40
31819;DHT22;18384;48.860;9.188;2023-05-24T03:57:58;13.70;93.50
31819;DHT22;18384;48.860;9.188;2023-05-24T04:00:24;13.70;93.50
31819;DHT22;18384;48.860;9.188;2023-05-24T04:02:50;13.80;93.50
31819;DHT22;18384;48.860;9.188;2023-05-24T04:05:17;13.80;93.50
31819;DHT22;18384;48.860;9.188;2023-05-24T04:07:43;13.70;93.70
31819;DHT22;18384;48.860;9.188;2023-05-24T04:10:10;13.70;93.40
31819;DHT22;18384;48.860;9.188;2023-05-24T04:12:36;13.70;93.50
31819;DHT22;18384;48.860;9.188;2023-05-24T04:15:02;13.70;93.50
31819;DHT22;18384;48.860;9.188;2023-05-24T04:17:29;13.60;93.50
31819;DHT22;18384;48.860;9.188;2023-05-24T04:19:59;13.60;93.50
31819;DHT22;18384;48.860;9.188;2023-05-24T04:22:25;13.60;93.60
31819;DHT22;18384;48.860;9.188;2023-05-24T04:24:51;13.60;93.60
31819;DHT22;18384;48.860;9.188;2023-05-24T04:27:17;13.70;93.50
31819;DHT22;18384;48.860;9.188;2023-05-24T04:29:43;13.60;93.60
31819;DHT22;18384;48.860;9.188;2023-05-24T04:32:14;13.60;93.60
31819;DHT22;18384;48.860;9.188;2023-05-24T04:34:44;13.60;93.70
31819;DHT22;18384;48.860;9.188;2023-05-24T04:37:10;13.60;93.80
31819;DHT22;18384;48.860;9.188;2023-05-24T04:39:38;13.50;93.70
31819;DHT22;18384;48.860;9.188;2023-05-24T04:42:05;13.60;93.80
31819;DHT22;18384;48.860;9.188;2023-05-24T04:44:32;13.50;93.80
31819;DHT22;18384;48.860;9.188;2023-05-24T04:46:58;13.50;93.80
31819;DHT22;18384;48.860;9.188;2023-05-24T04:49:25;13.50;93.80
31819;DHT22;18384;48.860;9.188;2023-05-24T04:51:51;13.60;93.80
31819;DHT22;18384;48.860;9.188;2023-05-24T04:54:17;13.60;93.80
31819;DHT22;18384;48.860;9.188;2023-05-24T04:56:43;13.60;93.70
31819;DHT22;18384;48.860;9.188;2023-05-24T04:59:09;13.70;93.80
31819;DHT22;18384;48.860;9.188;2023-05-24T05:01:35;13.60;93.60
31819;DHT22;18384;48.860;9.188;2023-05-24T05:04:01;13.60;93.90
31819;DHT22;18384;48.860;9.188;2023-05-24T05:06:31;14.30;93.90
31819;DHT22;18384;48.860;9.188;2023-05-24T05:08:59;13.50;93.90
31819;DHT22;18384;48.860;9.188;2023-05-24T05:11:25;13.60;93.90
31819;DHT22;18384;48.860;9.188;2023-05-24T05:13:52;13.60;93.80
31819;DHT22;18384;48.860;9.188;2023-05-24T05:16:19;13.60;93.70
31819;DHT22;18384;48.860;9.188;2023-05-24T05:18:45;13.60;93.60
31819;DHT22;18384;48.860;9.188;2023-05-24T05:21:10;13.70;93.40
31819;DHT22;18384;48.860;9.188;2023-05-24T05:23:36;13.60;93.50
31819;DHT22;18384;48.860;9.188;2023-05-24T05:26:04;13.70;93.40
31819;DHT22;18384;48.860;9.188;2023-05-24T05:28:31;13.70;93.50
31819;DHT22;18384;48.860;9.188;2023-05-24T05:30:57;13.60;93.30
31819;DHT22;18384;48.860;9.188;2023-05-24T05:33:23;13.60;93.60
31819;DHT22;18384;48.860;9.188;2023-05-24T05:35:50;13.70;93.40
31819;DHT22;18384;48.860;9.188;2023-05-24T05:38:16;13.70;93.20
31819;DHT22;18384;48.860;9.188;2023-05-24T05:40:42;13.80;93.10
31819;DHT22;18384;48.860;9.188;2023-05-24T05:43:08;13.80;93.10
31819;DHT22;18384;48.860;9.188;2023-05-24T05:45:34;15.70;93.30
31819;DHT22;18384;48.860;9.188;2023-05-24T05:48:00;13.70;93.10
31819;DHT22;18384;48.860;9.188;2023-05-24T05:50:26;13.70;92.90
31819;DHT22;18384;48.860;9.188;2023-05-24T05:52:52;13.70;93.00
31819;DHT22;18384;48.860;9.188;2023-05-24T05:55:18;13.80;93.10
31819;DHT22;18384;48.860;9.188;2023-05-24T05:57:44;13.80;92.90
31819;DHT22;18384;48.860;9.188;2023-05-24T06:00:10;13.90;93.00
31819;DHT22;18384;48.860;9.188;2023-05-24T06:02:36;13.90;92.80
31819;DHT22;18384;48.860;9.188;2023-05-24T06:05:02;13.90;92.80
31819;DHT22;18384;48.860;9.188;2023-05-24T06:07:28;13.90;92.80
31819;DHT22;18384;48.860;9.188;2023-05-24T06:09:55;14.00;92.90
31819;DHT22;18384;48.860;9.188;2023-05-24T06:12:21;14.10;92.60
31819;DHT22;18384;48.860;9.188;2023-05-24T06:14:47;14.10;92.40
31819;DHT22;18384;48.860;9.188;2023-05-24T06:17:15;14.10;92.60
31819;DHT22;18384;48.860;9.188;2023-05-24T06:19:41;14.10;92.30
31819;DHT22;18384;48.860;9.188;2023-05-24T06:22:08;14.20;92.40
31819;DHT22;18384;48.860;9.188;2023-05-24T06:24:34;14.20;92.40
31819;DHT22;18384;48.860;9.188;2023-05-24T06:27:00;14.30;92.60
31819;DHT22;18384;48.860;9.188;2023-05-24T06:29:26;14.30;92.20
31819;DHT22;18384;48.860;9.188;2023-05-24T06:31:52;14.30;92.20
31819;DHT22;18384;48.860;9.188;2023-05-24T06:34:18;14.30;92.00
31819;DHT22;18384;48.860;9.188;2023-05-24T06:36:47;14.30;92.30
31819;DHT22;18384;48.860;9.188;2023-05-24T06:39:15;14.30;92.20
31819;DHT22;18384;48.860;9.188;2023-05-24T06:41:42;14.30;92.50
31819;DHT22;18384;48.860;9.188;2023-05-24T06:44:08;14.40;92.30
31819;DHT22;18384;48.860;9.188;2023-05-24T06:46:34;14.40;92.20
31819;DHT22;18384;48.860;9.188;2023-05-24T06:49:00;14.30;92.30
31819;DHT22;18384;48.860;9.188;2023-05-24T06:51:26;14.20;92.40
31819;DHT22;18384;48.860;9.188;2023-05-24T06:53:52;14.20;92.60
31819;DHT22;18384;48.860;9.188;2023-05-24T06:56:18;14.20;92.50
31819;DHT22;18384;48.860;9.188;2023-05-24T06:58:44;14.20;92.60
31819;DHT22;18384;48.860;9.188;2023-05-24T07:01:11;14.20;92.50
31819;DHT22;18384;48.860;9.188;2023-05-24T07:03:37;14.20;92.40
31819;DHT22;18384;48.860;9.188;2023-05-24T07:06:03;14.20;92.50
31819;DHT22;18384;48.860;9.188;2023-05-24T07:08:29;14.10;92.40
31819;DHT22;18384;48.860;9.188;2023-05-24T07:10:55;14.10;92.60
31819;DHT22;18384;48.860;9.188;2023-05-24T07:13:21;14.10;92.50
31819;DHT22;18384;48.860;9.188;2023-05-24T07:15:47;14.10;92.60
31819;DHT22;18384;48.860;9.188;2023-05-24T07:18:13;14.20;92.60
31819;DHT22;18384;48.860;9.188;2023-05-24T07:20:39;14.20;92.80
31819;DHT22;18384;48.860;9.188;2023-05-24T07:23:05;14.30;92.60
31819;DHT22;18384;48.860;9.188;2023-05-24T07:25:31;14.20;92.40
31819;DHT22;18384;48.860;9.188;2023-05-24T07:27:59;14.20;92.50
31819;DHT22;18384;48.860;9.188;2023-05-24T07:30:25;14.30;92.70
31819;DHT22;18384;48.860;9.188;2023-05-24T07:32:51;14.30;92.30
31819;DHT22;18384;48.860;9.188;2023-05-24T07:35:17;14.40;92.30
31819;DHT22;18384;48.860;9.188;2023-05-24T07:37:43;14.20;92.10
31819;DHT22;18384;48.860;9.188;2023-05-24T07:40:09;14.50;92.40
31819;DHT22;18384;48.860;9.188;2023-05-24T07:45:22;14.40;92.20
31819;DHT22;18384;48.860;9.188;2023-05-24T07:47:48;14.40;92.10
31819;DHT22;18384;48.860;9.188;2023-05-24T07:50:14;14.50;92.20
31819;DHT22;18384;48.860;9.188;2023-05-24T07:52:40;14.60;92.10
31819;DHT22;18384;48.860;9.188;2023-05-24T07:55:07;14.50;91.70
31819;DHT22;18384;48.860;9.188;2023-05-24T07:57:33;14.60;91.90
31819;DHT22;18384;48.860;9.188;2023-05-24T07:59:59;14.50;92.00
31819;DHT22;18384;48.860;9.188;2023-05-24T08:02:31;14.50;91.90
31819;DHT22;18384;48.860;9.188;2023-05-24T08:04:57;14.40;92.00
31819;DHT22;18384;48.860;9.188;2023-05-24T08:07:24;14.40;92.10
31819;DHT22;18384;48.860;9.188;2023-05-24T08:09:50;14.30;91.90
31819;DHT22;18384;48.860;9.188;2023-05-24T08:12:16;14.40;91.90
31819;DHT22;18384;48.860;9.188;2023-05-24T08:14:42;14.40;92.10
31819;DHT22;18384;48.860;9.188;2023-05-24T08:17:08;14.50;92.10
31819;DHT22;18384;48.860;9.188;2023-05-24T08:19:34;14.50;91.90
31819;DHT22;18384;48.860;9.188;2023-05-24T08:22:00;14.50;91.80
31819;DHT22;18384;48.860;9.188;2023-05-24T08:24:29;14.40;91.80
31819;DHT22;18384;48.860;9.188;2023-05-24T08:26:56;14.50;91.90
31819;DHT22;18384;48.860;9.188;2023-05-24T08:29:22;14.00;91.90
31819;DHT22;18384;48.860;9.188;2023-05-24T08:31:48;14.70;91.80
31819;DHT22;18384;48.860;9.188;2023-05-24T08:34:14;14.70;91.50
31819;DHT22;18384;48.860;9.188;2023-05-24T08:36:40;14.80;91.50
31819;DHT22;18384;48.860;9.188;2023-05-24T08:39:08;14.80;91.40
31819;DHT22;18384;48.860;9.188;2023-05-24T08:41:34;14.90;91.30
31819;DHT22;18384;48.860;9.188;2023-05-24T08:44:02;15.00;91.30
31819;DHT22;18384;48.860;9.188;2023-05-24T08:46:30;15.10;91.40
31819;DHT22;18384;48.860;9.188;2023-05-24T08:48:59;15.20;91.10
31819;DHT22;18384;48.860;9.188;2023-05-24T08:51:25;15.10;91.10
31819;DHT22;18384;48.860;9.188;2023-05-24T08:53:51;15.10;91.20
31819;DHT22;18384;48.860;9.188;2023-05-24T08:56:18;15.00;91.10
31819;DHT22;18384;48.860;9.188;2023-05-24T08:58:44;15.00;91.10
31819;DHT22;18384;48.860;9.188;2023-05-24T09:01:14;15.10;91.40
31819;DHT22;18384;48.860;9.188;2023-05-24T09:03:42;15.10;91.10
31819;DHT22;18384;48.860;9.188;2023-05-24T09:06:08;15.10;91.00
31819;DHT22;18384;48.860;9.188;2023-05-24T09:08:36;14.90;91.00
31819;DHT22;18384;48.860;9.188;2023-05-24T09:11:02;14.80;91.20
31819;DHT22;18384;48.860;9.188;2023-05-24T09:13:30;14.90;91.70
31819;DHT22;18384;48.860;9.188;2023-05-24T09:15:57;14.90;91.40
31819;DHT22;18384;48.860;9.188;2023-05-24T09:18:24;14.90;91.40
31819;DHT22;18384;48.860;9.188;2023-05-24T09:20:50;14.90;91.40
31819;DHT22;18384;48.860;9.188;2023-05-24T09:23:16;15.00;91.50
31819;DHT22;18384;48.860;9.188;2023-05-24T09:25:46;15.10;91.00
31819;DHT22;18384;48.860;9.188;2023-05-24T09:28:16;15.10;91.10
31819;DHT22;18384;48.860;9.188;2023-05-24T09:30:42;15.20;91.20
31819;DHT22;18384;48.860;9.188;2023-05-24T09:33:10;15.10;91.20
31819;DHT22;18384;48.860;9.188;2023-05-24T09:35:38;15.20;90.90
31819;DHT22;18384;48.860;9.188;2023-05-24T09:38:14;15.10;90.90
31819;DHT22;18384;48.860;9.188;2023-05-24T09:40:42;15.10;91.10
31819;DHT22;18384;48.860;9.188;2023-05-24T09:43:08;15.10;91.00
31819;DHT22;18384;48.860;9.188;2023-05-24T09:45:40;15.10;91.10
31819;DHT22;18384;48.860;9.188;2023-05-24T09:48:14;15.00;90.90
31819;DHT22;18384;48.860;9.188;2023-05-24T09:50:42;15.00;91.00
31819;DHT22;18384;48.860;9.188;2023-05-24T09:53:11;15.00;91.00
31819;DHT22;18384;48.860;9.188;2023-05-24T09:55:38;15.00;91.20
31819;DHT22;18384;48.860;9.188;2023-05-24T09:58:04;15.00;90.90
31819;DHT22;18384;48.860;9.188;2023-05-24T10:00:37;14.80;90.70
31819;DHT22;18384;48.860;9.188;2023-05-24T10:03:09;14.80;90.80
31819;DHT22;18384;48.860;9.188;2023-05-24T10:05:36;14.70;90.90
31819;DHT22;18384;48.860;9.188;2023-05-24T10:08:02;14.70;90.80
31819;DHT22;18384;48.860;9.188;2023-05-24T10:10:30;14.80;91.00
31819;DHT22;18384;48.860;9.188;2023-05-24T10:12:57;14.90;91.00
31819;DHT22;18384;48.860;9.188;2023-05-24T10:15:24;15.00;90.80
31819;DHT22;18384;48.860;9.188;2023-05-24T10:17:50;15.00;90.60
31819;DHT22;18384;48.860;9.188;2023-05-24T10:20:16;15.00;90.60
31819;DHT22;18384;48.860;9.188;2023-05-24T10:22:43;15.00;90.60
31819;DHT22;18384;48.860;9.188;2023-05-24T10:25:14;15.20;90.60
31819;DHT22;18384;48.860;9.188;2023-05-24T10:27:43;15.20;90.50
31819;DHT22;18384;48.860;9.188;2023-05-24T10:30:33;15.20;90.30
31819;DHT22;18384;48.860;9.188;2023-05-24T10:33:02;15.30;90.10
31819;DHT22;18384;48.860;9.188;2023-05-24T10:35:29;15.40;89.60
31819;DHT22;18384;48.860;9.188;2023-05-24T10:37:56;16.00;89.60
31819;DHT22;18384;48.860;9.188;2023-05-24T10:40:22;15.50;89.90
31819;DHT22;18384;48.860;9.188;2023-05-24T10:42:51;15.70;89.50
31819;DHT22;18384;48.860;9.188;2023-05-24T10:45:37;15.80;87.70
31819;DHT22;18384;48.860;9.188;2023-05-24T10:48:07;15.80;87.80
31819;DHT22;18384;48.860;9.188;2023-05-24T10:53:57;16.00;86.90
31819;DHT22;18384;48.860;9.188;2023-05-24T10:56:23;16.10;86.20
31819;DHT22;18384;48.860;9.188;2023-05-24T10:58:58;16.20;86.50
31819;DHT22;18384;48.860;9.188;2023-05-24T11:01:28;16.30;86.00
31819;DHT22;18384;48.860;9.188;2023-05-24T11:04:08;16.50;86.20
31819;DHT22;18384;48.860;9.188;2023-05-24T11:11:10;16.80;85.70
31819;DHT22;18384;48.860;9.188;2023-05-24T11:13:45;16.60;85.10
31819;DHT22;18384;48.860;9.188;2023-05-24T11:16:31;16.50;86.20
31819;DHT22;18384;48.860;9.188;2023-05-24T11:19:15;16.40;84.70
31819;DHT22;18384;48.860;9.188;2023-05-24T11:21:43;16.30;84.90
31819;DHT22;18384;48.860;9.188;2023-05-24T11:24:10;16.40;84.80
31819;DHT22;18384;48.860;9.188;2023-05-24T11:26:36;16.20;84.00
31819;DHT22;18384;48.860;9.188;2023-05-24T11:29:02;16.20;84.40
31819;DHT22;18384;48.860;9.188;2023-05-24T11:31:29;16.10;85.50
31819;DHT22;18384;48.860;9.188;2023-05-24T11:33:56;16.10;84.50
31819;DHT22;18384;48.860;9.188;2023-05-24T11:36:21;16.00;85.20
31819;DHT22;18384;48.860;9.188;2023-05-24T11:38:48;16.00;85.10
31819;DHT22;18384;48.860;9.188;2023-05-24T11:41:14;16.00;85.50
31819;DHT22;18384;48.860;9.188;2023-05-24T11:43:41;16.10;85.10
31819;DHT22;18384;48.860;9.188;2023-05-24T11:46:07;16.10;84.10
31819;DHT22;18384;48.860;9.188;2023-05-24T11:48:33;16.10;84.20
31819;DHT22;18384;48.860;9.188;2023-05-24T11:50:59;16.10;84.80
31819;DHT22;18384;48.860;9.188;2023-05-24T11:53:25;16.10;85.20
31819;DHT22;18384;48.860;9.188;2023-05-24T11:55:54;16.10;83.50
31819;DHT22;18384;48.860;9.188;2023-05-24T11:58:24;16.10;83.80
31819;DHT22;18384;48.860;9.188;2023-05-24T12:00:54;16.10;83.70
31819;DHT22;18384;48.860;9.188;2023-05-24T12:03:20;16.10;83.90
31819;DHT22;18384;48.860;9.188;2023-05-24T12:05:46;16.20;85.40
31819;DHT22;18384;48.860;9.188;2023-05-24T12:08:12;16.40;85.50
31819;DHT22;18384;48.860;9.188;2023-05-24T12:10:40;16.50;83.30
31819;DHT22;18384;48.860;9.188;2023-05-24T12:13:23;16.70;82.50
31819;DHT22;18384;48.860;9.188;2023-05-24T12:15:53;16.90;83.30
31819;DHT22;18384;48.860;9.188;2023-05-24T12:18:20;16.90;82.10
31819;DHT22;18384;48.860;9.188;2023-05-24T12:20:49;16.90;82.20
31819;DHT22;18384;48.860;9.188;2023-05-24T12:23:17;16.90;81.00
31819;DHT22;18384;48.860;9.188;2023-05-24T12:25:44;16.70;81.40
31819;DHT22;18384;48.860;9.188;2023-05-24T12:28:11;16.60;81.80
31819;DHT22;18384;48.860;9.188;2023-05-24T12:30:37;16.60;82.20
31819;DHT22;18384;48.860;9.188;2023-05-24T12:33:08;16.50;83.20
31819;DHT22;18384;48.860;9.188;2023-05-24T12:35:34;16.60;83.80
31819;DHT22;18384;48.860;9.188;2023-05-24T12:38:00;16.80;82.40
31819;DHT22;18384;48.860;9.188;2023-05-24T12:40:26;16.90;82.50
31819;DHT22;18384;48.860;9.188;2023-05-24T12:42:52;17.00;81.70
31819;DHT22;18384;48.860;9.188;2023-05-24T12:45:21;17.10;80.80
31819;DHT22;18384;48.860;9.188;2023-05-24T12:47:49;17.30;80.80
31819;DHT22;18384;48.860;9.188;2023-05-24T12:50:16;17.30;80.70
31819;DHT22;18384;48.860;9.188;2023-05-24T12:52:45;17.40;80.80
31819;DHT22;18384;48.860;9.188;2023-05-24T12:55:12;17.60;80.20
31819;DHT22;18384;48.860;9.188;2023-05-24T12:57:39;17.70;79.40
31819;DHT22;18384;48.860;9.188;2023-05-24T13:00:05;17.60;78.60
31819;DHT22;18384;48.860;9.188;2023-05-24T13:02:32;17.50;77.70
31819;DHT22;18384;48.860;9.188;2023-05-24T13:04:58;17.30;78.00
31819;DHT22;18384;48.860;9.188;2023-05-24T13:07:24;17.20;77.70
31819;DHT22;18384;48.860;9.188;2023-05-24T13:09:50;17.10;78.70
31819;DHT22;18384;48.860;9.188;2023-05-24T13:12:16;17.20;79.70
31819;DHT22;18384;48.860;9.188;2023-05-24T13:14:42;17.20;78.90
31819;DHT22;18384;48.860;9.188;2023-05-24T13:17:08;17.40;80.00
31819;DHT22;18384;48.860;9.188;2023-05-24T13:19:35;17.60;79.10
31819;DHT22;18384;48.860;9.188;2023-05-24T13:22:01;17.70;77.40
31819;DHT22;18384;48.860;9.188;2023-05-24T13:24:26;17.80;77.50
31819;DHT22;18384;48.860;9.188;2023-05-24T13:26:52;17.70;77.90
31819;DHT22;18384;48.860;9.188;2023-05-24T13:29:18;17.50;78.10
31819;DHT22;18384;48.860;9.188;2023-05-24T13:31:44;17.30;78.80
31819;DHT22;18384;48.860;9.188;2023-05-24T13:34:10;17.30;78.90
31819;DHT22;18384;48.860;9.188;2023-05-24T13:36:36;17.20;77.10
31819;DHT22;18384;48.860;9.188;2023-05-24T13:39:03;17.20;77.10
31819;DHT22;18384;48.860;9.188;2023-05-24T13:41:29;17.30;76.10
31819;DHT22;18384;48.860;9.188;2023-05-24T13:46:41;17.40;76.80
31819;DHT22;18384;48.860;9.188;2023-05-24T13:49:07;17.50;74.40
31819;DHT22;18384;48.860;9.188;2023-05-24T13:51:34;17.60;75.50
31819;DHT22;18384;48.860;9.188;2023-05-24T13:54:00;17.60;75.50
31819;DHT22;18384;48.860;9.188;2023-05-24T13:56:26;17.50;75.20
31819;DHT22;18384;48.860;9.188;2023-05-24T13:58:57;17.40;75.80
31819;DHT22;18384;48.860;9.188;2023-05-24T14:01:23;17.20;75.90
31819;DHT22;18384;48.860;9.188;2023-05-24T14:03:49;17.20;76.30
31819;DHT22;18384;48.860;9.188;2023-05-24T14:06:16;17.20;75.10
31819;DHT22;18384;48.860;9.188;2023-05-24T14:08:42;17.40;76.00
31819;DHT22;18384;48.860;9.188;2023-05-24T14:11:08;17.50;74.90
31819;DHT22;18384;48.860;9.188;2023-05-24T14:13:35;17.50;74.90
31819;DHT22;18384;48.860;9.188;2023-05-24T14:16:01;17.50;74.80
31819;DHT22;18384;48.860;9.188;2023-05-24T14:18:27;17.40;74.30
31819;DHT22;18384;48.860;9.188;2023-05-24T14:20:53;17.50;73.30
31819;DHT22;18384;48.860;9.188;2023-05-24T14:23:19;17.40;74.70
31819;DHT22;18384;48.860;9.188;2023-05-24T14:25:45;17.60;73.70
31819;DHT22;18384;48.860;9.188;2023-05-24T14:28:11;17.70;73.30
31819;DHT22;18384;48.860;9.188;2023-05-24T14:30:37;17.80;72.90
31819;DHT22;18384;48.860;9.188;2023-05-24T14:33:03;17.90;74.00
31819;DHT22;18384;48.860;9.188;2023-05-24T14:35:31;18.00;73.20
31819;DHT22;18384;48.860;9.188;2023-05-24T14:38:03;18.00;73.20
31819;DHT22;18384;48.860;9.188;2023-05-24T14:40:30;17.90;72.60
31819;DHT22;18384;48.860;9.188;2023-05-24T14:42:56;17.80;73.50
31819;DHT22;18384;48.860;9.188;2023-05-24T14:45:22;17.80;73.10
31819;DHT22;18384;48.860;9.188;2023-05-24T14:47:48;17.90;73.90
31819;DHT22;18384;48.860;9.188;2023-05-24T14:50:14;18.00;73.50
31819;DHT22;18384;48.860;9.188;2023-05-24T14:52:40;18.00;72.50
31819;DHT22;18384;48.860;9.188;2023-05-24T14:55:06;18.00;70.20
31819;DHT22;18384;48.860;9.188;2023-05-24T14:57:32;18.00;71.90
31819;DHT22;18384;48.860;9.188;2023-05-24T14:59:59;18.00;71.60
31819;DHT22;18384;48.860;9.188;2023-05-24T15:02:25;18.00;71.60
31819;DHT22;18384;48.860;9.188;2023-05-24T15:04:52;17.90;71.60
31819;DHT22;18384;48.860;9.188;2023-05-24T15:07:18;18.00;71.60
31819;DHT22;18384;48.860;9.188;2023-05-24T15:09:44;18.00;71.80
31819;DHT22;18384;48.860;9.188;2023-05-24T15:12:10;18.10;73.00
31819;DHT22;18384;48.860;9.188;2023-05-24T15:14:36;18.10;71.60
31819;DHT22;18384;48.860;9.188;2023-05-24T15:17:03;18.20;71.10
31819;DHT22;18384;48.860;9.188;2023-05-24T15:19:29;18.30;71.90
31819;DHT22;18384;48.860;9.188;2023-05-24T15:21:54;18.30;71.70
31819;DHT22;18384;48.860;9.188;2023-05-24T15:24:20;18.30;72.60
31819;DHT22;18384;48.860;9.188;2023-05-24T15:26:46;18.30;72.20
31819;DHT22;18384;48.860;9.188;2023-05-24T15:29:12;18.20;72.20
31819;DHT22;18384;48.860;9.188;2023-05-24T15:31:38;18.00;72.80
31819;DHT22;18384;48.860;9.188;2023-05-24T15:34:04;17.90;73.50
31819;DHT22;18384;48.860;9.188;2023-05-24T15:36:30;17.80;72.80
31819;DHT22;18384;48.860;9.188;2023-05-24T15:38:56;17.80;72.30
31819;DHT22;18384;48.860;9.188;2023-05-24T15:41:22;17.80;73.30
31819;DHT22;18384;48.860;9.188;2023-05-24T15:43:51;17.90;73.60
31819;DHT22;18384;48.860;9.188;2023-05-24T15:46:19;17.90;74.90
31819;DHT22;18384;48.860;9.188;2023-05-24T15:48:46;18.10;73.30
31819;DHT22;18384;48.860;9.188;2023-05-24T15:51:12;18.10;71.70
31819;DHT22;18384;48.860;9.188;2023-05-24T15:53:37;18.20;71.40